Terminal Aerodrome Forecast
Issued by NWS

Home | Current Version | Previous Version | Graphics & Text | Print | Product List | Glossary On
Versions: 1 2 3 4 5 6 7 8 9 10 11 12 13 14 15 16 17 18 19 20 21 22
000
FTUS43 KBIS 180500
TAFMOT
TAF
KMOT 180535Z 1806/1906 11007KT P6SM SKC
     FM181100 14008KT P6SM SKC
     FM181700 16017G26KT P6SM SCT120=

USA.gov is the U.S. government's official web portal to all federal, state and local government web resources and services.